createdAt,value
2023-02-23T00:00:32.098Z,62.58
2023-02-23T00:03:01.740Z,62.64
2023-02-23T00:05:31.811Z,62.75
2023-02-23T00:07:59.883Z,62.67
2023-02-23T00:10:31.584Z,62.71
2023-02-23T00:13:00.144Z,62.88
2023-02-23T00:15:31.667Z,63.10
2023-02-23T00:17:59.840Z,63.09
2023-02-23T00:20:28.164Z,63.46
2023-02-23T00:22:58.341Z,63.51
2023-02-23T00:25:26.589Z,63.28
2023-02-23T00:27:56.065Z,63.35
2023-02-23T00:30:24.734Z,63.49
2023-02-23T00:32:53.291Z,63.37
2023-02-23T00:35:21.442Z,63.29
2023-02-23T00:37:53.222Z,63.20
2023-02-23T00:40:22.492Z,63.31
2023-02-23T00:42:52.444Z,63.52
2023-02-23T00:45:21.439Z,63.35
2023-02-23T00:47:49.810Z,63.12
2023-02-23T00:50:18.334Z,62.90
2023-02-23T00:52:50.163Z,63.02
2023-02-23T00:55:19.063Z,63.07
2023-02-23T00:57:47.381Z,63.03
2023-02-23T01:00:22.460Z,63.09
2023-02-23T01:02:51.328Z,63.28
2023-02-23T01:05:20.441Z,63.29
2023-02-23T01:07:52.094Z,63.37
2023-02-23T01:10:20.365Z,63.65
2023-02-23T01:12:55.712Z,63.96
2023-02-23T01:15:24.430Z,64.17
2023-02-23T01:17:52.401Z,64.59
2023-02-23T01:20:21.496Z,64.75
2023-02-23T01:22:50.094Z,64.65
2023-02-23T01:25:18.425Z,65.26
2023-02-23T01:27:46.509Z,65.30
2023-02-23T01:30:15.053Z,65.79
2023-02-23T01:32:45.904Z,65.75
2023-02-23T01:35:13.883Z,65.94
2023-02-23T01:37:43.538Z,65.89
2023-02-23T01:40:15.753Z,65.98
2023-02-23T01:42:49.177Z,65.99
2023-02-23T01:45:17.572Z,65.75
2023-02-23T01:47:46.115Z,65.88
2023-02-23T01:50:16.460Z,65.80
2023-02-23T01:52:46.044Z,65.91
2023-02-23T01:55:14.157Z,65.64
2023-02-23T01:57:42.498Z,65.44
2023-02-23T02:00:15.243Z,65.13
2023-02-23T02:02:43.558Z,65.24
2023-02-23T02:05:14.227Z,65.47
2023-02-23T02:07:45.346Z,65.60
2023-02-23T02:10:17.608Z,65.80
2023-02-23T02:12:52.142Z,65.79
2023-02-23T02:15:22.638Z,65.80
2023-02-23T02:18:25.049Z,65.77
2023-02-23T02:21:41.748Z,65.78
2023-02-23T02:24:13.208Z,65.92
2023-02-23T02:26:48.967Z,66.02
2023-02-23T02:29:51.531Z,65.98
2023-02-23T02:32:47.449Z,65.96
2023-02-23T02:35:39.728Z,65.99
2023-02-23T02:38:23.883Z,65.59
2023-02-23T02:41:04.094Z,65.69
2023-02-23T02:43:47.326Z,65.65
2023-02-23T02:46:15.572Z,65.63
2023-02-23T02:48:57.917Z,65.28
2023-02-23T02:51:28.846Z,65.09
2023-02-23T02:54:25.284Z,65.17
2023-02-23T02:56:58.470Z,65.22
2023-02-23T02:59:46.416Z,65.32
2023-02-23T03:02:37.998Z,65.26
2023-02-23T03:05:35.139Z,65.22
2023-02-23T03:08:31.523Z,65.05
2023-02-23T03:11:29.751Z,65.15
2023-02-23T03:14:32.834Z,65.46
2023-02-23T03:17:55.346Z,65.51
2023-02-23T03:21:09.290Z,65.49
2023-02-23T03:24:21.759Z,65.17
2023-02-23T03:27:12.400Z,65.47
2023-02-23T03:30:20.256Z,65.40
2023-02-23T03:33:11.236Z,65.50
2023-02-23T03:36:32.332Z,65.15
2023-02-23T03:39:42.584Z,65.34
2023-02-23T03:42:33.804Z,65.32
2023-02-23T03:45:26.601Z,65.33
2023-02-23T03:48:14.481Z,65.29
2023-02-23T03:51:27.915Z,65.21
2023-02-23T03:54:28.187Z,65.39
2023-02-23T03:57:15.773Z,65.38
2023-02-23T04:00:11.474Z,65.54
2023-02-23T04:03:03.218Z,65.65
2023-02-23T04:05:50.271Z,65.58
2023-02-23T04:08:37.643Z,65.51
2023-02-23T04:11:38.690Z,65.70
2023-02-23T04:14:10.786Z,65.73
2023-02-23T04:16:40.097Z,65.58
2023-02-23T04:19:08.358Z,65.87
2023-02-23T04:21:36.526Z,65.66
2023-02-23T04:24:05.252Z,65.69
2023-02-23T04:26:33.318Z,66.03
2023-02-23T04:29:01.626Z,66.01
2023-02-23T04:31:30.623Z,66.06
2023-02-23T04:33:59.255Z,66.09
2023-02-23T04:36:27.962Z,65.59
2023-02-23T04:38:58.015Z,66.03
2023-02-23T04:41:27.037Z,65.92
2023-02-23T04:43:55.233Z,65.71
2023-02-23T04:46:23.946Z,65.66
2023-02-23T04:48:53.171Z,65.45
2023-02-23T04:51:22.089Z,65.78
2023-02-23T04:53:50.314Z,65.64
2023-02-23T04:56:18.435Z,65.88
2023-02-23T04:58:46.634Z,65.98
2023-02-23T05:01:15.484Z,65.90
2023-02-23T05:03:44.047Z,65.85
2023-02-23T05:06:13.075Z,65.64
2023-02-23T05:08:41.449Z,65.81
2023-02-23T05:11:11.980Z,65.79
2023-02-23T05:13:42.190Z,65.91
2023-02-23T05:16:10.525Z,65.93
2023-02-23T05:18:38.763Z,65.72
2023-02-23T05:21:13.278Z,66.04
2023-02-23T05:23:43.705Z,66.05
2023-02-23T05:26:12.837Z,66.22
2023-02-23T05:28:42.915Z,66.04
2023-02-23T05:31:11.690Z,65.75
2023-02-23T05:33:44.130Z,65.81
2023-02-23T05:36:14.102Z,65.75
2023-02-23T05:38:47.026Z,65.79
2023-02-23T05:41:35.132Z,65.75
2023-02-23T05:44:03.572Z,65.90
2023-02-23T05:46:32.113Z,65.85
2023-02-23T05:49:04.567Z,65.57
2023-02-23T05:51:34.269Z,65.48
2023-02-23T05:54:02.345Z,65.32
2023-02-23T05:56:31.173Z,65.15
2023-02-23T05:58:59.501Z,64.97
2023-02-23T06:01:32.603Z,64.82
2023-02-23T06:04:06.350Z,64.57
2023-02-23T06:06:36.419Z,64.29
2023-02-23T06:09:11.166Z,64.02
2023-02-23T06:11:41.089Z,63.65
2023-02-23T06:14:09.440Z,63.51
2023-02-23T06:16:38.378Z,63.49
2023-02-23T06:19:09.504Z,63.37
2023-02-23T06:21:37.661Z,63.16
2023-02-23T06:24:07.313Z,63.15
2023-02-23T06:26:35.660Z,63.03
2023-02-23T06:29:03.877Z,63.19
2023-02-23T06:31:33.159Z,62.99
2023-02-23T06:34:04.010Z,63.14
2023-02-23T06:36:32.650Z,63.53
2023-02-23T06:39:05.988Z,63.64
2023-02-23T06:41:36.063Z,63.51
2023-02-23T06:44:04.547Z,63.26
2023-02-23T06:46:33.867Z,62.88
2023-02-23T06:49:03.947Z,63.13
2023-02-23T06:51:33.218Z,63.16
2023-02-23T06:54:03.902Z,63.26
2023-02-23T06:56:34.660Z,63.22
2023-02-23T06:59:03.293Z,63.01
2023-02-23T07:01:31.856Z,62.98
2023-02-23T07:05:38.528Z,62.84
2023-02-23T07:08:07.215Z,62.10
2023-02-23T07:10:35.491Z,61.65
2023-02-23T07:13:08.600Z,61.81
2023-02-23T07:15:40.588Z,61.54
2023-02-23T07:18:09.447Z,61.21
2023-02-23T07:20:38.295Z,60.71
2023-02-23T07:23:08.053Z,60.47
2023-02-23T07:25:41.900Z,60.41
2023-02-23T07:28:10.440Z,60.19
2023-02-23T07:30:39.361Z,59.38
2023-02-23T07:33:10.670Z,59.22
2023-02-23T07:35:39.477Z,59.32
2023-02-23T07:38:10.229Z,58.95
2023-02-23T07:40:40.034Z,58.56
2023-02-23T07:43:13.314Z,58.43
2023-02-23T07:45:42.108Z,57.95
2023-02-23T07:48:11.161Z,57.56
2023-02-23T07:50:42.501Z,56.83
2023-02-23T07:53:13.294Z,56.53
2023-02-23T07:55:43.371Z,56.61
2023-02-23T07:58:16.148Z,56.45
2023-02-23T08:00:46.162Z,56.71
2023-02-23T08:03:14.686Z,56.74
2023-02-23T08:05:44.988Z,56.47
2023-02-23T08:08:23.520Z,56.36
2023-02-23T08:11:21.120Z,55.85
2023-02-23T08:13:51.361Z,55.29
2023-02-23T08:16:19.944Z,55.25
2023-02-23T08:18:49.197Z,55.42
2023-02-23T08:21:17.617Z,55.57
2023-02-23T08:23:46.179Z,55.69
2023-02-23T08:26:16.246Z,55.21
2023-02-23T08:28:46.910Z,55.00
2023-02-23T08:31:18.937Z,55.29
2023-02-23T08:33:47.551Z,55.43
2023-02-23T08:36:16.611Z,55.18
2023-02-23T08:38:44.711Z,55.18
2023-02-23T08:41:13.370Z,55.44
2023-02-23T08:43:41.920Z,55.44
2023-02-23T08:46:10.458Z,55.16
2023-02-23T08:48:40.657Z,54.45
2023-02-23T08:51:10.119Z,54.55
2023-02-23T08:53:39.119Z,54.30
2023-02-23T08:56:08.088Z,54.23
2023-02-23T08:58:37.512Z,54.99
2023-02-23T09:01:08.398Z,54.06
2023-02-23T09:03:40.208Z,54.39
2023-02-23T09:06:12.130Z,54.16
2023-02-23T09:08:43.227Z,54.07
2023-02-23T09:11:13.655Z,54.17
2023-02-23T09:13:43.181Z,53.67
2023-02-23T09:16:11.831Z,52.58
2023-02-23T09:18:39.895Z,51.41
2023-02-23T09:21:10.911Z,51.21
2023-02-23T09:23:39.549Z,51.05
2023-02-23T09:26:12.210Z,51.09
2023-02-23T09:28:42.538Z,49.81
2023-02-23T09:31:16.020Z,49.33
2023-02-23T09:33:44.428Z,49.24
2023-02-23T09:36:16.606Z,47.41
2023-02-23T09:38:46.297Z,46.44
2023-02-23T09:41:40.509Z,45.76
2023-02-23T09:44:12.919Z,43.12
2023-02-23T09:46:54.449Z,43.07
2023-02-23T09:49:25.443Z,42.84
2023-02-23T09:51:57.834Z,41.04
2023-02-23T09:54:29.718Z,39.31
2023-02-23T09:56:58.576Z,38.38
2023-02-23T09:59:28.962Z,37.27
2023-02-23T10:02:21.714Z,35.13
2023-02-23T10:04:56.980Z,35.56
2023-02-23T10:07:46.478Z,36.57
2023-02-23T10:10:24.403Z,36.35
2023-02-23T10:13:12.507Z,35.18
2023-02-23T10:16:08.119Z,33.87
2023-02-23T10:18:56.815Z,32.71
2023-02-23T10:21:35.858Z,32.09
2023-02-23T10:24:25.791Z,33.27
2023-02-23T10:27:04.748Z,33.39
2023-02-23T10:29:34.827Z,33.46
2023-02-23T10:32:19.358Z,32.07
2023-02-23T10:34:53.277Z,30.53
2023-02-23T10:37:21.835Z,30.78
2023-02-23T10:39:52.108Z,30.31
2023-02-23T10:42:23.352Z,28.63
2023-02-23T10:44:53.604Z,28.08
2023-02-23T10:47:25.348Z,28.65
2023-02-23T10:49:58.838Z,27.96
2023-02-23T10:52:41.586Z,28.44
2023-02-23T10:55:28.714Z,28.40
2023-02-23T10:58:09.748Z,28.07
2023-02-23T11:00:40.501Z,27.80
2023-02-23T11:03:48.282Z,27.36
2023-02-23T11:06:35.195Z,25.94
2023-02-23T11:09:43.413Z,26.71
2023-02-23T11:12:21.920Z,26.95
2023-02-23T11:14:53.073Z,26.12
2023-02-23T11:17:29.869Z,25.94
2023-02-23T11:20:24.669Z,25.51
2023-02-23T11:22:53.797Z,25.01
2023-02-23T11:25:31.208Z,24.97
2023-02-23T11:27:59.438Z,24.47
2023-02-23T11:30:37.622Z,24.68
2023-02-23T11:33:11.780Z,24.35
2023-02-23T11:35:39.950Z,24.55
2023-02-23T11:38:24.373Z,23.55
2023-02-23T11:41:07.443Z,23.42
2023-02-23T11:43:40.956Z,23.64
2023-02-23T11:46:23.158Z,23.84
2023-02-23T11:49:01.158Z,23.90
2023-02-23T11:51:33.232Z,24.05
2023-02-23T11:54:02.267Z,23.47
2023-02-23T11:56:32.470Z,23.35
2023-02-23T11:59:08.450Z,23.37
2023-02-23T12:01:46.888Z,23.14
2023-02-23T12:04:31.401Z,23.14
2023-02-23T12:07:18.347Z,23.45
2023-02-23T12:09:46.928Z,23.53
2023-02-23T12:12:18.457Z,23.51
2023-02-23T12:15:09.570Z,23.19
2023-02-23T12:17:43.862Z,22.87
2023-02-23T12:20:29.262Z,22.55
2023-02-23T12:23:10.344Z,22.41
2023-02-23T12:26:13.975Z,22.17
2023-02-23T12:29:06.302Z,22.12
2023-02-23T12:31:34.930Z,21.72
2023-02-23T12:34:09.234Z,21.39
2023-02-23T12:36:51.332Z,21.31
2023-02-23T12:39:27.557Z,20.99
2023-02-23T12:42:00.131Z,20.88
2023-02-23T12:44:47.818Z,20.91
2023-02-23T12:47:39.438Z,21.11
2023-02-23T12:50:20.781Z,21.17
2023-02-23T12:53:13.097Z,20.57
2023-02-23T12:56:19.153Z,20.59
2023-02-23T12:59:01.180Z,20.68
2023-02-23T13:01:43.816Z,21.15
2023-02-23T13:04:46.141Z,21.36
2023-02-23T13:07:45.074Z,21.49
2023-02-23T13:10:44.216Z,21.41
2023-02-23T13:13:12.844Z,21.21
2023-02-23T13:15:55.341Z,21.23
2023-02-23T13:18:34.464Z,21.23
2023-02-23T13:21:15.300Z,20.98
2023-02-23T13:23:59.982Z,21.14
2023-02-23T13:26:39.506Z,21.19
2023-02-23T13:29:20.468Z,21.22
2023-02-23T13:31:48.702Z,21.01
2023-02-23T13:34:52.623Z,21.29
2023-02-23T13:37:35.040Z,21.78
2023-02-23T13:40:24.283Z,21.70
2023-02-23T13:43:10.210Z,21.68
2023-02-23T13:46:14.809Z,21.66
2023-02-23T13:48:57.264Z,21.87
2023-02-23T13:51:45.832Z,22.28
2023-02-23T13:54:16.631Z,23.05
2023-02-23T13:56:51.211Z,23.88
2023-02-23T13:59:23.986Z,24.72
2023-02-23T14:01:55.831Z,25.37
2023-02-23T14:04:29.290Z,25.86
2023-02-23T14:07:09.592Z,26.68
2023-02-23T14:09:47.622Z,27.06
2023-02-23T14:12:33.109Z,27.97
2023-02-23T14:15:29.055Z,28.55
2023-02-23T14:18:05.033Z,28.76
2023-02-23T14:20:40.264Z,29.44
2023-02-23T14:23:29.096Z,30.04
2023-02-23T14:26:15.803Z,30.38
2023-02-23T14:28:46.825Z,30.79
2023-02-23T14:31:16.136Z,31.01
2023-02-23T14:33:48.625Z,31.49
2023-02-23T14:36:24.107Z,31.80
2023-02-23T14:39:01.204Z,32.24
2023-02-23T14:41:47.112Z,32.75
2023-02-23T14:44:28.420Z,33.10
2023-02-23T14:47:03.412Z,33.40
2023-02-23T14:49:35.129Z,33.66
2023-02-23T14:52:08.423Z,33.96
2023-02-23T14:54:39.865Z,33.95
2023-02-23T14:57:20.153Z,34.36
2023-02-23T15:00:15.585Z,35.01
2023-02-23T15:03:16.203Z,35.66
2023-02-23T15:05:46.325Z,35.62
2023-02-23T15:08:23.321Z,36.09
2023-02-23T15:10:59.877Z,36.52
2023-02-23T15:13:30.402Z,36.73
2023-02-23T15:16:01.745Z,37.13
2023-02-23T15:18:32.635Z,37.62
2023-02-23T15:21:06.540Z,37.95
2023-02-23T15:23:39.300Z,38.13
2023-02-23T15:26:28.183Z,38.19
2023-02-23T15:28:57.123Z,38.34
2023-02-23T15:31:30.276Z,38.34
2023-02-23T15:33:58.500Z,38.39
2023-02-23T15:36:34.715Z,38.42
2023-02-23T15:39:05.455Z,38.37
2023-02-23T15:41:37.414Z,38.99
2023-02-23T15:44:21.761Z,39.40
2023-02-23T15:46:55.801Z,39.68
2023-02-23T15:49:32.704Z,39.82
2023-02-23T15:52:19.353Z,40.08
2023-02-23T15:55:00.679Z,40.32
2023-02-23T15:57:35.666Z,40.50
2023-02-23T16:00:11.006Z,40.37
2023-02-23T16:02:39.439Z,40.91
2023-02-23T16:05:23.540Z,40.81
2023-02-23T16:08:06.394Z,41.00
2023-02-23T16:10:43.570Z,41.12
2023-02-23T16:13:13.865Z,41.31
2023-02-23T16:15:46.205Z,41.41
2023-02-23T16:18:19.399Z,41.79
2023-02-23T16:20:56.777Z,41.81
2023-02-23T16:23:37.495Z,41.80
2023-02-23T16:26:29.838Z,41.72
2023-02-23T16:29:02.317Z,42.09
2023-02-23T16:31:47.704Z,42.10
2023-02-23T16:34:45.542Z,42.52
2023-02-23T16:37:27.133Z,43.09
2023-02-23T16:39:56.121Z,43.88
2023-02-23T16:42:32.064Z,44.80
2023-02-23T16:45:05.551Z,44.75
2023-02-23T16:47:42.802Z,45.40
2023-02-23T16:50:21.155Z,47.58
2023-02-23T16:52:53.448Z,48.49
2023-02-23T16:55:26.843Z,48.69
2023-02-23T16:58:00.762Z,49.47
2023-02-23T17:00:34.757Z,49.85
2023-02-23T17:03:06.649Z,50.00
2023-02-23T17:05:35.980Z,50.49
2023-02-23T17:08:05.500Z,50.19
2023-02-23T17:10:34.903Z,50.86
2023-02-23T17:13:06.288Z,51.03
2023-02-23T17:15:41.239Z,51.24
2023-02-23T17:18:11.962Z,51.38
2023-02-23T17:20:41.213Z,51.79
2023-02-23T17:23:11.484Z,52.16
2023-02-23T17:25:40.030Z,52.03
2023-02-23T17:28:08.867Z,52.41
2023-02-23T17:30:40.131Z,52.28
2023-02-23T17:33:08.852Z,52.26
2023-02-23T17:35:37.564Z,52.53
2023-02-23T17:38:07.400Z,52.67
2023-02-23T17:40:38.252Z,52.48
2023-02-23T17:43:09.928Z,52.58
2023-02-23T17:45:40.425Z,52.83
2023-02-23T17:48:08.801Z,52.84
2023-02-23T17:50:38.514Z,53.12
2023-02-23T17:53:07.393Z,53.23
2023-02-23T17:55:38.440Z,53.24
2023-02-23T17:58:08.807Z,53.75
2023-02-23T18:00:43.131Z,53.70
2023-02-23T18:03:12.828Z,53.58
2023-02-23T18:05:40.905Z,54.00
2023-02-23T18:08:26.505Z,54.12
2023-02-23T18:10:56.280Z,54.04
2023-02-23T18:13:26.084Z,54.03
2023-02-23T18:16:00.268Z,54.14
2023-02-23T18:18:28.926Z,54.17
2023-02-23T18:20:59.809Z,54.29
2023-02-23T18:23:33.548Z,54.45
2023-02-23T18:26:11.552Z,54.53
2023-02-23T18:28:44.706Z,54.46
2023-02-23T18:31:18.962Z,54.40
2023-02-23T18:33:50.246Z,54.26
2023-02-23T18:36:39.881Z,54.10
2023-02-23T18:39:13.269Z,53.58
2023-02-23T18:41:49.972Z,53.69
2023-02-23T18:44:18.511Z,53.55
2023-02-23T18:46:49.213Z,53.58
2023-02-23T18:49:19.840Z,53.20
2023-02-23T18:51:50.508Z,53.18
2023-02-23T18:54:20.811Z,53.26
2023-02-23T18:56:49.540Z,53.08
2023-02-23T18:59:18.371Z,52.96
2023-02-23T19:01:50.971Z,53.18
2023-02-23T19:04:20.353Z,53.19
2023-02-23T19:06:49.576Z,53.28
2023-02-23T19:09:21.587Z,53.36
2023-02-23T19:11:51.405Z,53.18
2023-02-23T19:14:32.875Z,53.38
2023-02-23T19:17:11.178Z,53.45
2023-02-23T19:19:39.495Z,53.62
2023-02-23T19:23:34.834Z,53.55
2023-02-23T19:26:03.467Z,53.69
2023-02-23T19:28:32.729Z,53.67
2023-02-23T19:31:05.498Z,53.80
2023-02-23T19:33:35.454Z,54.04
2023-02-23T19:36:08.460Z,54.32
2023-02-23T19:38:43.404Z,54.51
2023-02-23T19:41:14.153Z,54.60
2023-02-23T19:43:42.285Z,55.03
2023-02-23T19:46:13.194Z,55.30
2023-02-23T19:48:42.109Z,55.11
2023-02-23T19:51:11.800Z,55.31
2023-02-23T19:53:40.048Z,55.32
2023-02-23T19:56:12.788Z,55.23
2023-02-23T19:58:46.606Z,55.25
2023-02-23T20:01:18.198Z,55.54
2023-02-23T20:03:49.591Z,55.30
2023-02-23T20:06:17.931Z,55.25
2023-02-23T20:08:48.351Z,55.48
2023-02-23T20:11:16.573Z,55.61
2023-02-23T20:13:44.679Z,55.55
2023-02-23T20:16:14.195Z,55.73
2023-02-23T20:18:46.069Z,55.78
2023-02-23T20:21:19.792Z,55.75
2023-02-23T20:23:48.081Z,55.92
2023-02-23T20:26:26.214Z,56.16
2023-02-23T20:28:54.721Z,56.16
2023-02-23T20:31:35.189Z,56.35
2023-02-23T20:34:26.880Z,56.50
2023-02-23T20:36:55.861Z,56.28
2023-02-23T20:39:24.627Z,56.50
2023-02-23T20:41:55.080Z,56.95
2023-02-23T20:44:23.683Z,57.07
2023-02-23T20:46:53.135Z,57.13
2023-02-23T20:49:22.827Z,57.13
2023-02-23T20:51:50.928Z,57.19
2023-02-23T20:54:19.484Z,57.39
2023-02-23T20:57:07.603Z,57.24
2023-02-23T20:59:36.960Z,57.68
2023-02-23T21:02:05.610Z,57.76
2023-02-23T21:04:38.167Z,57.87
2023-02-23T21:07:06.910Z,57.93
2023-02-23T21:09:34.856Z,57.89
2023-02-23T21:12:03.830Z,57.84
2023-02-23T21:14:42.691Z,58.11
2023-02-23T21:17:10.810Z,58.50
2023-02-23T21:19:39.183Z,58.54
2023-02-23T21:22:07.291Z,58.94
2023-02-23T21:24:38.256Z,59.02
2023-02-23T21:27:06.606Z,58.88
2023-02-23T21:29:34.639Z,59.09
2023-02-23T21:32:02.845Z,59.35
2023-02-23T21:34:31.139Z,59.56
2023-02-23T21:37:09.499Z,59.78
2023-02-23T21:39:38.148Z,60.13
2023-02-23T21:42:07.564Z,60.46
2023-02-23T21:44:36.213Z,60.46
2023-02-23T21:47:07.248Z,61.08
2023-02-23T21:49:35.978Z,61.10
2023-02-23T21:52:04.487Z,61.44
2023-02-23T21:54:36.671Z,61.36
2023-02-23T21:57:04.684Z,61.88
2023-02-23T21:59:34.977Z,62.00
2023-02-23T22:02:02.946Z,62.19
2023-02-23T22:04:31.502Z,62.25
2023-02-23T22:06:59.668Z,62.45
2023-02-23T22:09:27.774Z,62.53
2023-02-23T22:11:56.082Z,62.79
2023-02-23T22:14:27.063Z,63.22
2023-02-23T22:16:55.223Z,63.45
2023-02-23T22:19:23.644Z,63.59
2023-02-23T22:21:51.944Z,63.71
2023-02-23T22:24:19.979Z,63.84
2023-02-23T22:26:54.561Z,63.98
2023-02-23T22:29:23.714Z,64.32
2023-02-23T22:31:51.888Z,64.41
2023-02-23T22:34:20.308Z,64.46
2023-02-23T22:36:48.623Z,64.57
2023-02-23T22:39:18.791Z,64.64
2023-02-23T22:41:47.259Z,64.98
2023-02-23T22:44:19.326Z,65.51
2023-02-23T22:46:47.977Z,65.60
2023-02-23T22:49:16.320Z,65.55
2023-02-23T22:51:44.389Z,65.73
2023-02-23T22:54:13.925Z,65.83
2023-02-23T22:56:42.467Z,65.81
2023-02-23T22:59:11.078Z,65.67
2023-02-23T23:01:39.361Z,65.63
2023-02-23T23:04:10.778Z,65.80
2023-02-23T23:06:40.427Z,66.09
2023-02-23T23:09:12.011Z,66.10
2023-02-23T23:11:44.557Z,66.42
2023-02-23T23:14:19.293Z,66.35
2023-02-23T23:16:48.436Z,66.69
2023-02-23T23:19:24.675Z,67.08
2023-02-23T23:21:56.747Z,67.30
2023-02-23T23:24:27.437Z,67.43
2023-02-23T23:26:59.847Z,67.28
2023-02-23T23:29:29.990Z,67.26
2023-02-23T23:31:58.226Z,67.48
2023-02-23T23:34:26.893Z,67.67
2023-02-23T23:36:57.699Z,67.95
2023-02-23T23:39:26.498Z,68.28
2023-02-23T23:41:55.312Z,68.31
2023-02-23T23:44:29.157Z,68.38
2023-02-23T23:46:58.311Z,68.50
2023-02-23T23:49:26.782Z,68.70
2023-02-23T23:51:57.166Z,68.50
2023-02-23T23:54:27.165Z,68.47
2023-02-23T23:56:55.262Z,68.73
2023-02-23T23:59:24.612Z,68.79
